Pearl City, Illinois
Current Conditions -  °F | °C
As of 3:35 AM on Saturday 25 Oct 2014 (Local Time) from KFEP Reporting Station
Haze Haze  
Wind Chill: 58°   Ceiling: 1100
Heat Index: 58°   Visibility: 4mi
Dew Point: 56°   Wind: 9mph
Humidity: 93%   Direction: 280°W
Pressure: 29.94"   Gusts: NA
Location:  42.27°N, 89.83°W
Report Text: KFEP 250835Z AUTO 28008KT 4SM BR OVC011 14/13 A2994 RMK AO2 T01440133
Loading
Personal Weather Stations






























Interactive Weather Map
Tropical Storm Tracking
New forecast layout! Learn more

10-Day Weather Forecast

Advertisements
Track Severe Weather on mobile